Fairdale, ND

7:09 PM CDT on September 20, 2014 (GMT -0500)
Cavalier | Change Station
CLOSE
Current Station
Airport
Location: Cavalier,
Elevation: 892 ft
Nearby Weather Stations

Elev 892 ft 48.78 °N, 97.63 °W | Updated 14 minutes ago

Mostly Cloudy
Mostly Cloudy
57 °F
Feels Like 57 °F
N
4
Wind Variable Wind from North

Today
High -- | Low -- °F
--% Chance of Precip.
Yesterday
High -- | Low -- °F
Precip. -- in
7:16 AM 7:34 PM
Waning Crescent, 10% visible
Pressure 29.86 in
Visibility 4.0 miles
Clouds Few 2000 ft
Mostly Cloudy 6000 ft
Mostly Cloudy 9000 ft
Dew Point 54 °F
Humidity 88%
Rainfall 0.51 in
Snow Depth Not available.
UV 0 out of 12
Pollen 3.50 out of 12
Air Quality Not available.
Flu Activity Not available.
METAR K2C8 202355Z AUTO 01003KT 4SM -RA FEW020 BKN060 BKN090 14/12 A2986 RMK AO2 LTG DSNT SE P0004

More Conditions Fewer Conditions

Pressure 29.86 in
Visibility 4.0 miles
Clouds Few 2000 ft
Mostly Cloudy 6000 ft
Mostly Cloudy 9000 ft
Dew Point 54 °F
Humidity 88%
Rainfall 0.51 in
Snow Depth Not available.
UV 0 out of 12
Pollen 3.50 out of 12
Air Quality Not available.
Flu Activity Not available.
METAR K2C8 202355Z AUTO 01003KT 4SM -RA FEW020 BKN060 BKN090 14/12 A2986 RMK AO2 LTG DSNT SE P0004

More Conditions Fewer Conditions

10-Day Weather Forecast

Almanac

Astronomy

Sep. 20, 2014 Rise Set
Actual Time 7:16 AM CDT 7:34 PM CDT
Civil Twilight 6:45 AM CDT 8:06 PM CDT
Nautical Twilight 6:08 AM CDT 8:42 PM CDT
Astronomical Twilight 5:29 AM CDT 9:21 PM CDT
Moon 3:44 AM CDT (9/20) 5:49 PM CDT (9/20)
Length of Visible Light 13h 20m
Length of Day
12h 18m
Tomorrow will be 3m 31s shorter.
Waning Crescent, 10% of the Moon is Illuminated
Today
Waning Crescent
Sep 24
New
Oct 1
First Quarter
Oct 8
Full
Oct 15
Last Quarter

Today's Extremes

State Highs State Lows

Community

WunderPhotos

Upload Photos

1,754,982 photos uploaded!

WunderBlogs® & News

Nearby

Snow Depth

Station Depth Elevation
No new snow has been reported.

Earthquake Activity

City Distance Mag. Time & Date
No recent earthquake activity has been reported nearby.
Minimum magnitude displayed is 2.5.

Coastal Water Temperatures

Place Temperature
No Stations Reporting

Nearby Weather Stations